Highland Park, Louisiana
Current Conditions -  °F | °C
As of 10:53 AM on Thursday 30 Oct 2014 (Local Time) from KMLU Reporting Station
Clear Clear  
Wind Chill: 63°   Ceiling: Unl
Heat Index: 63°   Visibility: 10mi
Dew Point: 47°   Wind: 3mph
Humidity: 56%   Direction: 220°SW
Pressure: 30.19"   Gusts: NA
Location:  32.5473°N, 92.2007°W
Report Text: KMLU 301553Z 22003KT 10SM CLR 17/08 A3019 RMK AO2 SLP222 T01720083
Loading
Personal Weather Stations






























Interactive Weather Map
Tropical Storm Tracking
New forecast layout! Learn more

10-Day Weather Forecast

Advertisements
Track Severe Weather on mobile